createdAt,value
2018-01-15T00:00:09.573Z,101405.80
2018-01-15T00:02:47.229Z,101394.34
2018-01-15T00:05:26.451Z,101389.22
2018-01-15T00:07:59.694Z,101386.72
2018-01-15T00:10:35.277Z,101376.54
2018-01-15T00:13:07.033Z,101379.18
2018-01-15T00:15:41.524Z,101369.96
2018-01-15T00:18:14.671Z,101371.58
2018-01-15T00:20:52.841Z,101360.05
2018-01-15T00:23:33.687Z,101361.48
2018-01-15T00:26:06.768Z,101352.70
2018-01-15T00:28:48.297Z,101350.90
2018-01-15T00:31:20.471Z,101347.30
2018-01-15T00:33:53.681Z,101342.94
2018-01-15T00:36:24.161Z,101339.63
2018-01-15T00:38:55.531Z,101339.12
2018-01-15T00:41:30.448Z,101346.81
2018-01-15T00:44:02.077Z,101338.78
2018-01-15T00:46:34.585Z,101352.27
2018-01-15T00:49:05.570Z,101339.41
2018-01-15T00:51:37.766Z,101321.88
2018-01-15T00:54:11.966Z,101310.73
2018-01-15T00:56:42.790Z,101311.10
2018-01-15T00:59:13.862Z,101303.67
2018-01-15T01:01:44.363Z,101307.70
2018-01-15T01:04:14.913Z,101308.06
2018-01-15T01:06:45.411Z,101306.55
2018-01-15T01:09:15.897Z,101300.52
2018-01-15T01:11:48.358Z,101302.91
2018-01-15T01:14:18.652Z,101301.11
2018-01-15T01:16:48.946Z,101289.66
2018-01-15T01:19:19.178Z,101294.63
2018-01-15T01:21:49.615Z,101287.79
2018-01-15T01:24:20.121Z,101285.24
2018-01-15T01:26:50.417Z,101282.48
2018-01-15T01:29:21.321Z,101286.67
2018-01-15T01:31:52.993Z,101289.88
2018-01-15T01:34:23.206Z,101279.84
2018-01-15T01:36:54.584Z,101272.98
2018-01-15T01:39:28.021Z,101274.70
2018-01-15T01:41:59.911Z,101268.91
2018-01-15T01:44:30.814Z,101269.03
2018-01-15T01:47:02.813Z,101267.67
2018-01-15T01:49:33.066Z,101259.75
2018-01-15T01:52:07.229Z,101251.84
2018-01-15T01:54:43.092Z,101250.87
2018-01-15T01:57:13.963Z,101243.67
2018-01-15T01:59:44.309Z,101250.52
2018-01-15T02:02:15.841Z,101244.36
2018-01-15T02:04:46.847Z,101246.39
2018-01-15T02:07:17.258Z,101241.23
2018-01-15T02:09:50.712Z,101238.05
2018-01-15T02:12:21.069Z,101233.05
2018-01-15T02:14:52.981Z,101239.45
2018-01-15T02:17:24.029Z,101226.91
2018-01-15T02:19:55.606Z,101227.57
2018-01-15T02:22:31.308Z,101177.05
2018-01-15T02:25:01.938Z,101219.91
2018-01-15T02:27:32.418Z,101222.67
2018-01-15T02:30:04.898Z,101202.36
2018-01-15T02:32:36.114Z,101199.13
2018-01-15T02:35:06.978Z,101199.58
2018-01-15T02:37:37.905Z,101191.80
2018-01-15T02:40:08.947Z,101189.27
2018-01-15T02:42:39.804Z,101190.79
2018-01-15T02:45:14.619Z,101190.84
2018-01-15T02:47:45.494Z,101185.28
2018-01-15T02:50:16.052Z,101171.45
2018-01-15T02:52:46.348Z,101178.11
2018-01-15T02:55:16.666Z,101177.52
2018-01-15T02:57:47.510Z,101180.28
2018-01-15T03:00:19.689Z,101160.16
2018-01-15T03:02:51.230Z,101155.30
2018-01-15T03:05:22.600Z,101150.20
2018-01-15T03:07:56.300Z,101140.87
2018-01-15T03:10:27.199Z,101142.61
2018-01-15T03:12:58.711Z,101118.11
2018-01-15T03:15:29.342Z,101141.06
2018-01-15T03:18:00.636Z,101142.31
2018-01-15T03:20:34.780Z,101131.23
2018-01-15T03:23:07.333Z,101127.26
2018-01-15T03:25:39.656Z,101117.60
2018-01-15T03:28:12.566Z,101115.20
2018-01-15T03:30:44.403Z,101122.79
2018-01-15T03:33:15.265Z,101125.12
2018-01-15T03:35:46.588Z,101102.01
2018-01-15T03:38:17.148Z,101112.31
2018-01-15T03:40:47.863Z,101107.47
2018-01-15T03:43:18.252Z,101102.31
2018-01-15T03:45:49.363Z,101100.09
2018-01-15T03:48:19.779Z,101088.08
2018-01-15T03:50:50.496Z,101082.20
2018-01-15T03:53:21.323Z,101069.71
2018-01-15T03:55:51.989Z,101080.10
2018-01-15T03:58:23.187Z,101072.10
2018-01-15T04:00:54.118Z,101066.00
2018-01-15T04:03:25.495Z,101067.97
2018-01-15T04:05:56.947Z,101065.85
2018-01-15T04:08:28.422Z,101063.28
2018-01-15T04:10:58.842Z,101056.87
2018-01-15T04:13:29.687Z,101059.70
2018-01-15T04:16:00.993Z,101060.32
2018-01-15T04:18:32.680Z,101050.98
2018-01-15T04:21:03.454Z,101042.73
2018-01-15T04:23:33.766Z,101038.49
2018-01-15T04:26:04.430Z,101031.50
2018-01-15T04:28:35.098Z,101031.36
2018-01-15T04:31:05.613Z,101032.36
2018-01-15T04:33:35.945Z,101033.73
2018-01-15T04:36:06.674Z,101034.30
2018-01-15T04:38:37.142Z,101019.44
2018-01-15T04:41:08.198Z,101007.31
2018-01-15T04:43:39.635Z,101015.72
2018-01-15T04:46:10.415Z,101003.35
2018-01-15T04:48:41.110Z,101009.53
2018-01-15T04:51:11.847Z,101006.73
2018-01-15T04:53:42.143Z,101001.29
2018-01-15T04:56:16.664Z,100997.97
2018-01-15T04:58:48.807Z,100994.05
2018-01-15T05:01:19.874Z,100990.13
2018-01-15T05:03:51.749Z,100987.70
2018-01-15T05:06:22.204Z,100978.06
2018-01-15T05:08:53.384Z,100974.88
2018-01-15T05:11:24.233Z,100947.14
2018-01-15T05:13:54.405Z,100959.06
2018-01-15T05:16:25.030Z,100963.58
2018-01-15T05:18:56.018Z,100954.23
2018-01-15T05:21:26.328Z,100956.63
2018-01-15T05:23:56.719Z,100954.20
2018-01-15T05:26:27.413Z,100948.95
2018-01-15T05:28:57.665Z,100944.86
2018-01-15T05:31:29.455Z,100951.61
2018-01-15T05:33:59.923Z,100944.26
2018-01-15T05:36:32.300Z,100938.94
2018-01-15T05:39:02.989Z,100938.22
2018-01-15T05:41:33.232Z,100942.27
2018-01-15T05:44:04.528Z,100934.12
2018-01-15T05:46:35.269Z,100906.92
2018-01-15T05:49:06.429Z,100935.87
2018-01-15T05:51:36.753Z,100932.64
2018-01-15T05:54:07.445Z,100938.00
2018-01-15T05:56:37.688Z,100928.61
2018-01-15T05:59:10.132Z,100928.53
2018-01-15T06:01:41.787Z,100931.16
2018-01-15T06:04:13.511Z,100925.94
2018-01-15T06:09:15.310Z,100916.73
2018-01-15T06:11:46.964Z,100899.73
2018-01-15T06:14:18.243Z,100897.11
2018-01-15T06:16:48.845Z,100890.95
2018-01-15T06:19:19.156Z,100881.98
2018-01-15T06:21:51.046Z,100876.55
2018-01-15T06:24:22.002Z,100873.53
2018-01-15T06:26:56.636Z,100870.76
2018-01-15T06:29:27.540Z,100865.36
2018-01-15T06:31:58.900Z,100871.49
2018-01-15T06:34:29.515Z,100860.13
2018-01-15T06:37:01.474Z,100858.36
2018-01-15T06:39:31.865Z,100840.22
2018-01-15T06:42:03.563Z,100842.89
2018-01-15T06:44:37.027Z,100836.83
2018-01-15T06:47:08.845Z,100839.32
2018-01-15T06:49:39.989Z,100833.73
2018-01-15T06:52:19.187Z,100804.42
2018-01-15T06:55:12.032Z,100826.67
2018-01-15T06:57:47.915Z,100823.98
2018-01-15T07:00:24.230Z,100806.77
2018-01-15T07:02:58.009Z,100817.02
2018-01-15T07:05:31.489Z,100823.16
2018-01-15T07:08:03.823Z,100781.34
2018-01-15T07:10:37.205Z,100806.25
2018-01-15T07:13:15.898Z,100809.19
2018-01-15T07:15:49.652Z,100806.56
2018-01-15T07:18:23.953Z,100808.02
2018-01-15T07:20:55.264Z,100797.59
2018-01-15T07:23:26.962Z,100805.88
2018-01-15T07:25:58.061Z,100765.69
2018-01-15T07:28:28.370Z,100796.16
2018-01-15T07:30:58.792Z,100786.80
2018-01-15T07:33:32.456Z,100791.55
2018-01-15T07:36:04.820Z,100783.77
2018-01-15T07:38:37.528Z,100777.02
2018-01-15T07:41:08.400Z,100780.36
2018-01-15T07:43:39.348Z,100780.56
2018-01-15T07:46:09.954Z,100774.66
2018-01-15T07:48:41.180Z,100775.97
2018-01-15T07:51:11.837Z,100770.36
2018-01-15T07:53:56.356Z,100774.34
2018-01-15T07:56:27.507Z,100762.65
2018-01-15T07:59:01.115Z,100766.33
2018-01-15T08:01:32.545Z,100777.19
2018-01-15T08:04:04.867Z,100770.51
2018-01-15T08:06:36.337Z,100754.52
2018-01-15T08:09:07.028Z,100751.19
2018-01-15T08:11:37.251Z,100766.00
2018-01-15T08:14:07.866Z,100764.52
2018-01-15T08:16:38.897Z,100744.67
2018-01-15T08:19:09.266Z,100748.70
2018-01-15T08:21:39.922Z,100741.29
2018-01-15T08:24:10.798Z,100742.37
2018-01-15T08:26:41.870Z,100606.24
2018-01-15T08:29:12.619Z,100742.48
2018-01-15T08:31:43.089Z,100732.19
2018-01-15T08:34:13.833Z,100739.07
2018-01-15T08:36:44.367Z,100730.93
2018-01-15T08:39:15.114Z,100725.16
2018-01-15T08:41:46.513Z,100726.38
2018-01-15T08:44:18.145Z,100722.16
2018-01-15T08:46:50.094Z,100718.50
2018-01-15T08:49:28.630Z,100715.77
2018-01-15T08:51:59.608Z,100711.11
2018-01-15T08:54:30.676Z,100706.98
2018-01-15T08:57:00.995Z,100698.12
2018-01-15T08:59:32.534Z,100693.53
2018-01-15T09:04:43.406Z,100679.28
2018-01-15T09:07:15.201Z,100670.95
2018-01-15T09:09:46.417Z,100673.73
2018-01-15T09:12:18.533Z,100665.22
2018-01-15T09:14:50.432Z,100653.28
2018-01-15T09:17:22.215Z,100657.15
2018-01-15T09:19:52.773Z,100653.32
2018-01-15T09:22:24.013Z,100637.05
2018-01-15T09:24:55.493Z,100632.81
2018-01-15T09:27:26.658Z,100632.42
2018-01-15T09:29:58.279Z,100630.04
2018-01-15T09:32:29.231Z,100620.68
2018-01-15T09:35:01.446Z,100618.50
2018-01-15T09:37:32.761Z,100620.90
2018-01-15T09:40:10.958Z,100615.45
2018-01-15T09:42:44.798Z,100591.95
2018-01-15T09:45:23.410Z,100613.70
2018-01-15T09:47:54.569Z,100611.33
2018-01-15T09:50:27.727Z,100609.27
2018-01-15T09:53:02.499Z,100603.89
2018-01-15T09:55:36.487Z,100588.20
2018-01-15T09:58:10.118Z,100585.41
2018-01-15T10:00:41.908Z,100589.28
2018-01-15T10:03:13.217Z,100585.48
2018-01-15T10:05:47.298Z,100582.12
2018-01-15T10:08:19.926Z,100570.31
2018-01-15T10:13:21.514Z,100576.27
2018-01-15T10:15:53.874Z,100570.65
2018-01-15T10:18:26.130Z,100561.10
2018-01-15T10:20:58.401Z,100562.03
2018-01-15T10:23:30.551Z,100541.79
2018-01-15T10:26:01.153Z,100543.96
2018-01-15T10:28:32.024Z,100536.66
2018-01-15T10:31:05.758Z,100514.27
2018-01-15T10:33:36.915Z,100515.73
2018-01-15T10:36:13.068Z,100495.77
2018-01-15T10:38:45.650Z,100494.97
2018-01-15T10:41:16.558Z,100485.88
2018-01-15T10:43:49.319Z,100479.60
2018-01-15T10:46:23.791Z,100478.11
2018-01-15T10:48:59.457Z,100468.82
2018-01-15T10:51:32.387Z,100468.52
2018-01-15T10:54:04.182Z,100458.34
2018-01-15T10:56:34.556Z,100452.94
2018-01-15T10:59:06.470Z,100457.48
2018-01-15T11:01:37.596Z,100437.41
2018-01-15T11:04:08.965Z,100429.48
2018-01-15T11:06:39.393Z,100408.06
2018-01-15T11:09:11.504Z,100404.37
2018-01-15T11:11:47.376Z,100397.73
2018-01-15T11:14:24.863Z,100385.49
2018-01-15T11:16:57.276Z,100375.38
2018-01-15T11:19:31.690Z,100374.20
2018-01-15T11:22:04.991Z,100372.77
2018-01-15T11:24:36.449Z,100362.81
2018-01-15T11:27:08.228Z,100353.50
2018-01-15T11:29:40.446Z,100341.56
2018-01-15T11:32:12.786Z,100323.75
2018-01-15T11:34:46.157Z,100317.52
2018-01-15T11:37:21.081Z,100326.47
2018-01-15T11:42:22.603Z,100291.57
2018-01-15T11:44:53.934Z,100310.58
2018-01-15T11:47:24.721Z,100257.68
2018-01-15T11:49:55.777Z,100277.61
2018-01-15T11:52:28.637Z,100242.44
2018-01-15T11:55:02.716Z,100246.66
2018-01-15T11:57:33.967Z,100236.27
2018-01-15T12:00:10.667Z,100234.02
2018-01-15T12:02:46.756Z,100206.62
2018-01-15T12:05:18.112Z,100215.59
2018-01-15T12:07:55.671Z,100191.53
2018-01-15T12:10:26.031Z,100190.59
2018-01-15T12:12:57.450Z,100187.24
2018-01-15T12:15:32.977Z,100179.04
2018-01-15T12:18:05.693Z,100163.30
2018-01-15T12:20:38.759Z,100154.58
2018-01-15T12:29:27.241Z,100110.50
2018-01-15T12:31:59.026Z,100082.88
2018-01-15T12:34:29.276Z,100108.33
2018-01-15T12:37:00.320Z,100077.22
2018-01-15T12:39:30.784Z,100031.14
2018-01-15T12:42:01.327Z,100051.80
2018-01-15T12:44:32.265Z,100038.25
2018-01-15T12:47:08.897Z,100034.98
2018-01-15T12:49:41.067Z,100013.73
2018-01-15T12:52:15.798Z,100021.02
2018-01-15T12:54:47.696Z,100019.20
2018-01-15T12:57:21.934Z,100000.13
2018-01-15T12:59:54.628Z,99995.28
2018-01-15T13:02:26.021Z,99995.34
2018-01-15T13:05:06.631Z,99985.20
2018-01-15T13:07:46.141Z,99982.56
2018-01-15T13:10:19.917Z,99978.98
2018-01-15T13:12:53.316Z,99968.16
2018-01-15T13:15:24.928Z,99962.67
2018-01-15T13:17:59.714Z,99962.22
2018-01-15T13:20:30.680Z,99948.67
2018-01-15T13:23:03.376Z,99946.38
2018-01-15T13:25:38.301Z,99925.61
2018-01-15T13:28:08.538Z,99936.38
2018-01-15T13:30:40.986Z,99932.46
2018-01-15T13:33:13.994Z,99916.84
2018-01-15T13:35:45.531Z,99892.64
2018-01-15T13:38:16.524Z,99906.67
2018-01-15T13:40:50.671Z,99895.36
2018-01-15T13:43:21.778Z,99911.80
2018-01-15T13:45:53.923Z,99912.45
2018-01-15T13:48:24.172Z,99909.03
2018-01-15T13:50:57.671Z,99895.42
2018-01-15T13:53:31.686Z,99910.84
2018-01-15T13:56:10.348Z,99892.64
2018-01-15T13:58:41.505Z,99880.30
2018-01-15T14:01:12.686Z,99868.19
2018-01-15T14:03:43.937Z,99839.83
2018-01-15T14:06:28.859Z,99830.63
2018-01-15T14:08:59.831Z,99845.67
2018-01-15T14:11:32.109Z,99813.44
2018-01-15T14:14:04.456Z,99826.61
2018-01-15T14:16:36.286Z,99811.17
2018-01-15T14:19:10.374Z,99806.44
2018-01-15T14:21:43.538Z,99773.59
2018-01-15T14:24:15.093Z,99780.30
2018-01-15T14:26:48.551Z,99769.49
2018-01-15T14:29:22.100Z,99749.77
2018-01-15T14:31:55.450Z,99742.91
2018-01-15T14:34:29.542Z,99763.23
2018-01-15T14:37:01.452Z,99746.91
2018-01-15T14:39:38.735Z,99746.95
2018-01-15T14:42:11.479Z,99701.51
2018-01-15T14:44:43.710Z,99734.52
2018-01-15T14:47:17.009Z,99726.55
2018-01-15T14:49:53.086Z,99710.27
2018-01-15T14:52:23.881Z,99692.68
2018-01-15T14:54:56.206Z,99681.37
2018-01-15T14:57:28.208Z,99677.84
2018-01-15T15:00:00.408Z,99679.33
2018-01-15T15:02:36.089Z,99636.88
2018-01-15T15:05:11.061Z,99660.73
2018-01-15T15:07:41.617Z,99648.86
2018-01-15T15:10:12.843Z,99636.21
2018-01-15T15:12:47.454Z,99630.95
2018-01-15T15:15:19.794Z,99603.34
2018-01-15T15:17:52.331Z,99609.05
2018-01-15T15:20:27.272Z,99596.84
2018-01-15T15:22:58.671Z,99585.66
2018-01-15T15:25:35.513Z,99576.44
2018-01-15T15:28:07.049Z,99564.33
2018-01-15T15:30:42.264Z,99557.27
2018-01-15T15:33:15.630Z,99549.77
2018-01-15T15:35:51.970Z,99541.56
2018-01-15T15:38:23.353Z,99516.95
2018-01-15T15:40:56.837Z,99494.44
2018-01-15T15:43:28.468Z,99496.33
2018-01-15T15:46:00.620Z,99472.41
2018-01-15T15:48:32.980Z,99467.43
2018-01-15T15:51:06.041Z,99479.35
2018-01-15T15:53:39.783Z,99455.28
2018-01-15T15:56:13.831Z,99464.80
2018-01-15T15:58:52.541Z,99464.39
2018-01-15T16:01:24.868Z,99461.13
2018-01-15T16:03:57.863Z,99448.25
2018-01-15T16:06:42.314Z,99426.88
2018-01-15T16:09:13.048Z,99431.75
2018-01-15T16:11:45.685Z,99410.56
2018-01-15T16:14:17.327Z,99406.61
2018-01-15T16:16:52.776Z,99377.73
2018-01-15T16:19:23.910Z,99394.80
2018-01-15T16:22:04.288Z,99387.22
2018-01-15T16:24:35.933Z,99384.23
2018-01-15T16:27:19.923Z,99390.70
2018-01-15T16:29:52.109Z,99386.15
2018-01-15T16:32:24.038Z,99375.95
2018-01-15T16:34:56.387Z,99365.78
2018-01-15T16:37:27.008Z,99353.57
2018-01-15T16:39:58.104Z,99363.50
2018-01-15T16:42:29.214Z,99348.34
2018-01-15T16:45:00.723Z,99355.33
2018-01-15T16:47:36.637Z,99352.91
2018-01-15T16:50:12.969Z,99334.30
2018-01-15T16:52:45.523Z,99345.87
2018-01-15T16:55:17.041Z,99346.58
2018-01-15T16:57:48.869Z,99322.43
2018-01-15T17:00:22.648Z,99293.97
2018-01-15T17:02:54.865Z,99311.97
2018-01-15T17:05:28.534Z,99305.36
2018-01-15T17:08:00.533Z,99277.89
2018-01-15T17:10:31.860Z,99287.19
2018-01-15T17:13:05.787Z,99272.50
2018-01-15T17:15:41.654Z,99260.06
2018-01-15T17:18:22.662Z,99264.66
2018-01-15T17:20:53.627Z,99253.45
2018-01-15T17:23:24.725Z,99248.75
2018-01-15T17:25:55.678Z,99216.91
2018-01-15T17:28:26.844Z,99233.09
2018-01-15T17:30:59.245Z,99233.26
2018-01-15T17:33:31.882Z,99223.83
2018-01-15T17:36:02.812Z,99220.77
2018-01-15T17:38:36.679Z,99216.87
2018-01-15T17:41:18.261Z,99213.18
2018-01-15T17:43:55.646Z,99190.22
2018-01-15T17:46:29.294Z,99194.95
2018-01-15T17:49:04.587Z,99164.05
2018-01-15T17:51:38.552Z,99171.73
2018-01-15T17:54:12.366Z,99174.76
2018-01-15T17:56:48.130Z,99183.36
2018-01-15T17:59:20.021Z,99160.31
2018-01-15T18:01:56.743Z,99149.98
2018-01-15T18:04:34.441Z,99150.13
2018-01-15T18:07:07.859Z,99140.72
2018-01-15T18:12:33.945Z,99134.87
2018-01-15T18:15:19.464Z,99111.75
2018-01-15T18:18:00.168Z,99095.34
2018-01-15T18:20:33.222Z,99090.91
2018-01-15T18:23:11.412Z,99098.21
2018-01-15T18:25:42.580Z,99078.05
2018-01-15T18:28:18.294Z,99073.83
2018-01-15T18:30:53.794Z,99072.98
2018-01-15T18:33:29.361Z,99085.09
2018-01-15T18:36:03.122Z,99042.15
2018-01-15T18:38:41.273Z,99052.84
2018-01-15T18:41:16.341Z,99030.64
2018-01-15T18:43:48.778Z,99037.81
2018-01-15T18:46:27.517Z,99030.08
2018-01-15T18:49:04.200Z,99026.48
2018-01-15T18:51:39.285Z,99038.69
2018-01-15T18:54:11.141Z,99022.38
2018-01-15T18:59:21.417Z,99005.50
2018-01-15T19:01:52.664Z,99016.20
2018-01-15T19:04:24.050Z,98996.83
2018-01-15T19:06:56.242Z,98980.18
2018-01-15T19:09:29.710Z,98984.48
2018-01-15T19:12:06.778Z,98984.39
2018-01-15T19:14:42.637Z,98978.17
2018-01-15T19:17:17.304Z,98919.30
2018-01-15T19:19:52.852Z,98936.66
2018-01-15T19:22:24.919Z,98972.16
2018-01-15T19:24:57.363Z,98963.90
2018-01-15T19:27:28.798Z,98952.80
2018-01-15T19:30:03.447Z,98959.09
2018-01-15T19:32:38.483Z,98951.41
2018-01-15T19:35:12.623Z,98966.70
2018-01-15T19:37:54.050Z,98956.50
2018-01-15T19:40:27.043Z,98956.14
2018-01-15T19:43:04.215Z,98947.25
2018-01-15T19:47:45.878Z,98928.45
2018-01-15T19:50:22.708Z,98931.83
2018-01-15T19:55:07.008Z,98930.11
2018-01-15T19:57:56.444Z,98927.44
2018-01-15T20:02:36.823Z,98936.74
2018-01-15T20:07:22.887Z,98928.91
2018-01-15T20:10:57.897Z,98922.62
2018-01-15T20:13:35.934Z,98919.41
2018-01-15T20:16:14.846Z,98924.37
2018-01-15T20:18:50.526Z,98914.98
2018-01-15T20:21:29.975Z,98912.73
2018-01-15T20:24:04.171Z,98917.84
2018-01-15T20:26:39.813Z,98903.02
2018-01-15T20:29:22.740Z,98902.13
2018-01-15T20:31:56.837Z,98905.77
2018-01-15T20:34:34.344Z,98900.30
2018-01-15T20:37:10.887Z,98889.71
2018-01-15T20:40:04.281Z,98894.16
2018-01-15T20:42:42.634Z,98881.73
2018-01-15T20:45:23.419Z,98885.80
2018-01-15T20:47:59.926Z,98883.81
2018-01-15T20:50:34.229Z,98877.77
2018-01-15T20:53:10.618Z,98865.49
2018-01-15T20:56:10.783Z,98875.88
2018-01-15T20:58:50.194Z,98880.02
2018-01-15T21:01:26.923Z,98890.77
2018-01-15T21:04:07.673Z,98898.95
2018-01-15T21:06:44.350Z,98889.42
2018-01-15T21:09:18.932Z,98884.97
2018-01-15T21:11:52.903Z,98889.69
2018-01-15T21:14:28.890Z,98889.38
2018-01-15T21:17:04.495Z,98886.22
2018-01-15T21:19:36.025Z,98883.22
2018-01-15T21:22:08.638Z,98881.07
2018-01-15T21:24:43.543Z,98872.14
2018-01-15T21:27:20.210Z,98870.59
2018-01-15T21:29:54.202Z,98874.30
2018-01-15T21:32:43.382Z,98868.55
2018-01-15T21:35:17.355Z,98872.63
2018-01-15T21:37:52.138Z,98868.72
2018-01-15T21:40:25.341Z,98870.00
2018-01-15T21:42:58.817Z,98865.39
2018-01-15T21:45:32.115Z,98863.41
2018-01-15T21:48:05.225Z,98869.81
2018-01-15T21:50:38.860Z,98871.70
2018-01-15T21:53:11.270Z,98873.98
2018-01-15T21:55:57.910Z,98870.14
2018-01-15T21:58:30.198Z,98868.09
2018-01-15T22:01:03.259Z,98870.34
2018-01-15T22:03:35.165Z,98856.44
2018-01-15T22:06:07.578Z,98867.28
2018-01-15T22:08:41.828Z,98872.39
2018-01-15T22:11:13.416Z,98872.61
2018-01-15T22:13:46.773Z,98885.45
2018-01-15T22:16:22.278Z,98886.06
2018-01-15T22:18:56.962Z,98871.94
2018-01-15T22:21:28.650Z,98878.10
2018-01-15T22:24:04.203Z,98875.54
2018-01-15T22:26:34.709Z,98883.11
2018-01-15T22:29:07.483Z,98878.73
2018-01-15T22:31:41.256Z,98879.25
2018-01-15T22:34:12.706Z,98893.20
2018-01-15T22:36:44.220Z,98902.63
2018-01-15T22:39:19.909Z,98893.46
2018-01-15T22:41:50.619Z,98893.77
2018-01-15T22:44:21.969Z,98879.02
2018-01-15T22:46:54.474Z,98876.83
2018-01-15T22:49:28.622Z,98872.44
2018-01-15T22:52:05.275Z,98870.43
2018-01-15T22:54:39.718Z,98873.80
2018-01-15T22:57:24.801Z,98846.92
2018-01-15T22:59:59.813Z,98853.72
2018-01-15T23:02:36.115Z,98841.22
2018-01-15T23:05:09.453Z,98849.75
2018-01-15T23:07:46.022Z,98852.48
2018-01-15T23:10:18.522Z,98858.27
2018-01-15T23:12:54.723Z,98851.88
2018-01-15T23:15:28.947Z,98852.17
2018-01-15T23:18:03.589Z,98850.89
2018-01-15T23:20:39.117Z,98854.77
2018-01-15T23:23:11.685Z,98862.45
2018-01-15T23:25:43.186Z,98880.37
2018-01-15T23:28:16.839Z,98890.47
2018-01-15T23:30:48.556Z,98900.72
2018-01-15T23:33:21.552Z,98916.05
2018-01-15T23:35:55.758Z,98923.30
2018-01-15T23:38:29.014Z,98934.34
2018-01-15T23:41:00.845Z,98937.91
2018-01-15T23:43:32.174Z,98943.09
2018-01-15T23:46:05.866Z,98939.53
2018-01-15T23:48:39.206Z,98950.60
2018-01-15T23:51:14.138Z,98956.09
2018-01-15T23:53:45.556Z,98949.41
2018-01-15T23:56:16.347Z,98950.42
2018-01-15T23:58:46.609Z,98959.38
